createdAt,value
2018-09-18T00:01:50.475Z,99.90
2018-09-18T00:04:17.702Z,99.90
2018-09-18T00:06:44.920Z,99.90
2018-09-18T00:09:12.143Z,99.90
2018-09-18T00:11:39.396Z,99.90
2018-09-18T00:14:06.728Z,99.90
2018-09-18T00:16:34.160Z,99.90
2018-09-18T00:19:01.483Z,99.90
2018-09-18T00:21:28.719Z,99.90
2018-09-18T00:23:55.937Z,99.90
2018-09-18T00:26:23.172Z,99.90
2018-09-18T00:28:50.412Z,99.90
2018-09-18T00:31:17.626Z,99.90
2018-09-18T00:33:44.927Z,99.90
2018-09-18T00:36:12.134Z,99.90
2018-09-18T00:38:39.377Z,99.90
2018-09-18T00:41:06.599Z,99.90
2018-09-18T00:43:33.847Z,99.90
2018-09-18T00:46:01.114Z,99.90
2018-09-18T00:48:28.371Z,99.90
2018-09-18T00:50:55.640Z,99.90
2018-09-18T00:53:22.866Z,99.90
2018-09-18T00:55:50.123Z,99.90
2018-09-18T00:58:17.351Z,99.90
2018-09-18T01:00:44.611Z,99.90
2018-09-18T01:03:11.904Z,99.90
2018-09-18T01:05:39.102Z,99.90
2018-09-18T01:08:06.376Z,99.90
2018-09-18T01:10:33.703Z,99.90
2018-09-18T01:13:00.939Z,99.90
2018-09-18T01:15:28.213Z,99.90
2018-09-18T01:17:55.441Z,99.90
2018-09-18T01:20:22.658Z,99.90
2018-09-18T01:22:49.891Z,99.90
2018-09-18T01:25:17.126Z,99.90
2018-09-18T01:27:44.397Z,99.90
2018-09-18T01:30:11.713Z,99.90
2018-09-18T01:32:38.964Z,99.90
2018-09-18T01:35:06.234Z,99.90
2018-09-18T01:37:33.463Z,99.90
2018-09-18T01:40:00.712Z,99.90
2018-09-18T01:42:27.996Z,99.90
2018-09-18T01:44:55.286Z,99.90
2018-09-18T01:47:22.474Z,99.90
2018-09-18T01:49:49.730Z,99.90
2018-09-18T01:52:16.934Z,99.90
2018-09-18T01:54:44.120Z,99.90
2018-09-18T01:57:11.342Z,99.90
2018-09-18T01:59:38.563Z,99.90
2018-09-18T02:02:05.790Z,99.90
2018-09-18T02:04:32.994Z,99.90
2018-09-18T02:07:00.189Z,99.90
2018-09-18T02:09:27.394Z,99.90
2018-09-18T02:11:54.602Z,99.90
2018-09-18T02:14:21.806Z,99.90
2018-09-18T02:16:49.060Z,99.90
2018-09-18T02:19:16.314Z,99.90
2018-09-18T02:21:43.559Z,99.90
2018-09-18T02:24:10.758Z,99.90
2018-09-18T02:26:37.983Z,99.90
2018-09-18T02:29:05.246Z,99.90
2018-09-18T02:31:32.482Z,99.90
2018-09-18T02:33:59.703Z,99.90
2018-09-18T02:36:27.032Z,99.90
2018-09-18T02:38:54.243Z,99.90
2018-09-18T02:41:21.539Z,99.90
2018-09-18T02:43:48.790Z,99.90
2018-09-18T02:46:16.044Z,99.90
2018-09-18T02:48:43.255Z,99.90
2018-09-18T02:51:10.632Z,99.90
2018-09-18T02:53:37.858Z,99.90
2018-09-18T02:56:05.088Z,99.90
2018-09-18T02:58:32.303Z,99.90
2018-09-18T03:00:59.530Z,99.90
2018-09-18T03:03:26.764Z,99.90
2018-09-18T03:05:54.002Z,99.90
2018-09-18T03:08:21.254Z,99.90
2018-09-18T03:10:48.470Z,99.90
2018-09-18T03:13:15.695Z,99.90
2018-09-18T03:15:42.931Z,99.90
2018-09-18T03:18:10.199Z,99.90
2018-09-18T03:20:37.426Z,99.90
2018-09-18T03:23:04.663Z,99.90
2018-09-18T03:25:31.898Z,99.90
2018-09-18T03:27:59.338Z,99.90
2018-09-18T03:30:26.581Z,99.90
2018-09-18T03:32:53.851Z,99.90
2018-09-18T03:35:21.063Z,99.90
2018-09-18T03:37:48.275Z,99.90
2018-09-18T03:40:15.487Z,99.90
2018-09-18T03:42:42.687Z,99.90
2018-09-18T03:45:09.892Z,99.90
2018-09-18T03:47:37.123Z,99.90
2018-09-18T03:50:04.350Z,99.90
2018-09-18T03:52:31.563Z,99.90
2018-09-18T03:54:58.776Z,99.90
2018-09-18T03:57:25.972Z,99.90
2018-09-18T03:59:53.187Z,99.90
2018-09-18T04:02:20.387Z,99.90
2018-09-18T04:04:47.595Z,99.90
2018-09-18T04:07:14.798Z,99.90
2018-09-18T04:09:42.066Z,99.90
2018-09-18T04:12:09.313Z,99.90
2018-09-18T04:14:36.529Z,99.90
2018-09-18T04:17:03.746Z,99.90
2018-09-18T04:19:30.985Z,99.90
2018-09-18T04:21:58.207Z,99.90
2018-09-18T04:24:25.454Z,99.90
2018-09-18T04:26:52.707Z,99.90
2018-09-18T04:29:19.995Z,99.90
2018-09-18T04:31:47.202Z,99.90
2018-09-18T04:34:14.435Z,99.90
2018-09-18T04:36:41.680Z,99.90
2018-09-18T04:39:10.807Z,99.90
2018-09-18T04:41:38.014Z,99.90
2018-09-18T04:44:05.402Z,99.90
2018-09-18T04:46:32.634Z,99.90
2018-09-18T04:48:59.859Z,99.90
2018-09-18T04:51:27.070Z,99.90
2018-09-18T04:53:54.312Z,99.90
2018-09-18T04:56:21.519Z,99.90
2018-09-18T04:58:48.739Z,99.90
2018-09-18T05:01:15.967Z,99.90
2018-09-18T05:03:43.180Z,99.90
2018-09-18T05:06:10.407Z,99.90
2018-09-18T05:08:37.603Z,99.90
2018-09-18T05:11:04.876Z,99.90
2018-09-18T05:13:32.089Z,99.90
2018-09-18T05:15:59.325Z,99.90
2018-09-18T05:18:26.583Z,99.90
2018-09-18T05:20:53.835Z,99.90
2018-09-18T05:23:21.168Z,99.90
2018-09-18T05:25:48.354Z,99.90
2018-09-18T05:28:15.554Z,99.90
2018-09-18T05:30:42.870Z,99.90
2018-09-18T05:33:10.156Z,99.90
2018-09-18T05:35:37.371Z,99.90
2018-09-18T05:38:04.742Z,99.90
2018-09-18T05:40:31.999Z,99.90
2018-09-18T05:42:59.233Z,99.90
2018-09-18T05:45:26.446Z,99.90
2018-09-18T05:47:53.675Z,99.90
2018-09-18T05:50:20.943Z,99.90
2018-09-18T05:52:48.202Z,99.90
2018-09-18T05:55:15.421Z,99.90
2018-09-18T05:57:42.676Z,99.90
2018-09-18T06:00:09.931Z,99.90
2018-09-18T06:02:37.207Z,99.90
2018-09-18T06:05:04.452Z,99.90
2018-09-18T06:07:31.678Z,99.90
2018-09-18T06:09:58.867Z,99.90
2018-09-18T06:12:26.098Z,99.90
2018-09-18T06:14:53.350Z,99.90
2018-09-18T06:17:20.565Z,99.90
2018-09-18T06:19:47.806Z,99.90
2018-09-18T06:22:15.046Z,99.90
2018-09-18T06:24:42.243Z,99.90
2018-09-18T06:27:09.459Z,99.90
2018-09-18T06:29:36.779Z,99.90
2018-09-18T06:32:04.091Z,99.90
2018-09-18T06:34:31.307Z,99.90
2018-09-18T06:36:58.553Z,99.90
2018-09-18T06:39:25.742Z,99.90
2018-09-18T06:41:52.967Z,99.90
2018-09-18T06:44:20.182Z,99.90
2018-09-18T06:46:47.911Z,99.90
2018-09-18T06:49:15.161Z,99.90
2018-09-18T06:51:42.416Z,99.90
2018-09-18T06:54:09.659Z,99.90
2018-09-18T06:56:36.910Z,99.90
2018-09-18T06:59:04.258Z,99.90
2018-09-18T07:01:31.540Z,99.90
2018-09-18T07:03:58.782Z,99.90
2018-09-18T07:06:26.022Z,99.90
2018-09-18T07:08:53.283Z,99.90
2018-09-18T07:11:20.532Z,99.90
2018-09-18T07:13:47.780Z,99.90
2018-09-18T07:16:15.007Z,99.90
2018-09-18T07:18:42.243Z,99.90
2018-09-18T07:21:09.471Z,99.90
2018-09-18T07:23:36.785Z,99.90
2018-09-18T07:26:04.012Z,99.90
2018-09-18T07:28:31.269Z,99.90
2018-09-18T07:30:58.507Z,99.90
2018-09-18T07:33:25.735Z,99.80
2018-09-18T07:35:52.966Z,95.80
2018-09-18T07:38:20.207Z,91.60
2018-09-18T07:40:47.455Z,89.30
2018-09-18T07:43:14.685Z,86.10
2018-09-18T07:45:41.895Z,82.30
2018-09-18T07:48:09.117Z,78.20
2018-09-18T07:50:36.373Z,74.20
2018-09-18T07:53:03.598Z,73.40
2018-09-18T07:55:30.863Z,69.10
2018-09-18T07:57:58.134Z,68.00
2018-09-18T08:00:25.432Z,62.30
2018-09-18T08:02:52.622Z,60.70
2018-09-18T08:05:19.916Z,61.80
2018-09-18T08:07:47.164Z,61.90
2018-09-18T08:10:14.442Z,60.70
2018-09-18T08:12:41.638Z,61.30
2018-09-18T08:15:08.847Z,61.50
2018-09-18T08:17:36.060Z,61.60
2018-09-18T08:20:03.428Z,61.20
2018-09-18T08:22:30.838Z,59.70
2018-09-18T08:24:58.068Z,58.70
2018-09-18T08:27:25.301Z,57.20
2018-09-18T08:29:52.539Z,53.50
2018-09-18T08:32:19.754Z,53.40
2018-09-18T08:34:46.963Z,51.50
2018-09-18T08:37:14.167Z,50.00
2018-09-18T08:39:41.475Z,49.10
2018-09-18T08:42:08.635Z,47.80
2018-09-18T08:44:35.897Z,48.00
2018-09-18T08:49:30.304Z,45.30
2018-09-18T08:51:58.400Z,44.90
2018-09-18T08:54:25.590Z,44.00
2018-09-18T08:56:52.930Z,44.70
2018-09-18T08:59:20.218Z,42.30
2018-09-18T09:01:47.433Z,41.90
2018-09-18T09:04:15.507Z,42.90
2018-09-18T09:06:42.880Z,43.60
2018-09-18T09:09:12.902Z,43.40
2018-09-18T09:11:40.346Z,42.70
2018-09-18T09:14:07.733Z,42.60
2018-09-18T09:16:35.196Z,41.20
2018-09-18T09:19:02.806Z,39.90
2018-09-18T09:21:31.894Z,39.20
2018-09-18T09:23:59.266Z,38.80
2018-09-18T09:26:28.587Z,38.30
2018-09-18T09:31:23.875Z,36.00
2018-09-18T09:36:20.662Z,66.90
2018-09-18T09:38:47.986Z,35.00
2018-09-18T09:41:15.180Z,43.60
2018-09-18T09:43:42.417Z,46.10
2018-09-18T09:53:33.773Z,33.20
2018-09-18T09:56:04.777Z,35.40
2018-09-18T09:58:32.030Z,31.10
2018-09-18T10:03:32.212Z,29.50
2018-09-18T10:05:59.476Z,30.00
2018-09-18T10:08:26.735Z,29.80
2018-09-18T10:10:54.060Z,30.00
2018-09-18T10:13:21.273Z,29.60
2018-09-18T10:15:48.519Z,29.30
2018-09-18T10:18:15.777Z,30.00
2018-09-18T10:20:43.019Z,30.20
2018-09-18T10:23:10.278Z,28.30
2018-09-18T10:25:37.557Z,28.30
2018-09-18T10:28:05.223Z,26.70
2018-09-18T10:32:59.703Z,26.00
2018-09-18T10:35:26.964Z,26.90
2018-09-18T10:37:54.239Z,25.90
2018-09-18T10:40:21.534Z,30.30
2018-09-18T10:50:13.492Z,35.20
2018-09-18T10:52:40.990Z,40.60
2018-09-18T10:57:35.474Z,27.00
2018-09-18T11:00:02.767Z,22.90
2018-09-18T11:02:30.029Z,23.60
2018-09-18T11:04:57.715Z,24.30
2018-09-18T11:07:25.960Z,24.20
2018-09-18T11:09:53.683Z,23.30
2018-09-18T11:12:22.370Z,23.80
2018-09-18T11:14:53.719Z,24.10
2018-09-18T11:17:21.210Z,24.50
2018-09-18T11:19:48.839Z,24.40
2018-09-18T11:22:17.945Z,23.50
2018-09-18T11:24:45.189Z,23.60
2018-09-18T11:27:12.403Z,22.90
2018-09-18T11:29:39.626Z,23.70
2018-09-18T11:32:06.915Z,24.30
2018-09-18T11:34:35.372Z,24.20
2018-09-18T11:41:59.502Z,51.20
2018-09-18T11:54:19.580Z,49.80
2018-09-18T11:59:14.606Z,49.00
2018-09-18T12:01:42.109Z,49.30
2018-09-18T12:04:09.355Z,49.00
2018-09-18T12:14:01.739Z,49.70
2018-09-18T12:16:28.992Z,48.70
2018-09-18T12:21:25.547Z,42.70
2018-09-18T12:23:52.898Z,46.60
2018-09-18T12:26:20.192Z,47.00
2018-09-18T12:28:47.516Z,47.50
2018-09-18T12:31:14.846Z,46.70
2018-09-18T12:33:42.112Z,46.30
2018-09-18T12:36:09.365Z,47.30
2018-09-18T12:38:36.669Z,43.00
2018-09-18T12:41:03.878Z,22.50
2018-09-18T12:43:31.106Z,22.30
2018-09-18T12:45:58.368Z,22.10
2018-09-18T12:48:25.599Z,22.30
2018-09-18T12:50:52.912Z,21.80
2018-09-18T12:53:20.069Z,21.60
2018-09-18T12:58:15.568Z,26.80
2018-09-18T13:32:38.617Z,26.40
2018-09-18T13:35:05.814Z,20.10
2018-09-18T13:40:00.361Z,20.30
2018-09-18T13:42:28.028Z,20.60
2018-09-18T13:44:55.236Z,20.80
2018-09-18T13:47:22.887Z,20.40
2018-09-18T13:49:50.126Z,20.40
2018-09-18T13:52:17.351Z,20.60
2018-09-18T13:54:44.583Z,20.80
2018-09-18T13:57:11.876Z,20.60
2018-09-18T13:59:39.148Z,20.70
2018-09-18T14:02:06.566Z,20.60
2018-09-18T14:04:33.892Z,20.30
2018-09-18T14:07:01.125Z,20.30
2018-09-18T14:09:28.460Z,20.10
2018-09-18T14:11:55.587Z,20.40
2018-09-18T14:16:50.185Z,41.80
2018-09-18T14:19:17.397Z,40.30
2018-09-18T14:21:44.640Z,40.00
2018-09-18T14:24:11.885Z,39.20
2018-09-18T14:26:39.280Z,22.40
2018-09-18T14:48:44.426Z,27.20
2018-09-18T14:51:11.814Z,31.40
2018-09-18T14:53:39.007Z,34.70
2018-09-18T14:56:06.251Z,28.40
2018-09-18T14:58:33.478Z,21.80
2018-09-18T15:01:00.719Z,21.70
2018-09-18T15:03:27.995Z,21.10
2018-09-18T15:05:55.216Z,21.60
2018-09-18T15:08:22.475Z,22.10
2018-09-18T15:10:49.724Z,21.70
2018-09-18T15:13:16.955Z,22.40
2018-09-18T15:15:44.270Z,21.80
2018-09-18T15:18:11.538Z,21.90
2018-09-18T15:20:38.760Z,22.20
2018-09-18T15:28:02.047Z,31.00
2018-09-18T15:30:29.211Z,24.20
2018-09-18T15:32:56.613Z,24.10
2018-09-18T15:35:24.024Z,35.20
2018-09-18T15:37:51.454Z,34.70
2018-09-18T15:50:09.786Z,51.50
2018-09-18T16:00:01.197Z,27.80
2018-09-18T16:02:28.418Z,28.20
2018-09-18T16:07:22.835Z,29.40
2018-09-18T16:09:50.128Z,30.20
2018-09-18T16:12:17.331Z,30.10
2018-09-18T16:14:44.626Z,29.60
2018-09-18T16:17:11.825Z,28.90
2018-09-18T16:19:39.080Z,28.70
2018-09-18T16:22:06.293Z,28.40
2018-09-18T16:24:33.608Z,28.50
2018-09-18T16:27:00.862Z,28.80
2018-09-18T16:29:28.129Z,29.80
2018-09-18T16:31:55.376Z,29.90
2018-09-18T16:37:12.716Z,32.10
2018-09-18T16:39:39.958Z,33.20
2018-09-18T16:42:16.800Z,35.10
2018-09-18T16:44:45.095Z,34.80
2018-09-18T16:47:12.443Z,35.70
2018-09-18T16:49:39.928Z,36.30
2018-09-18T16:55:28.842Z,37.20
2018-09-18T16:57:56.100Z,38.00
2018-09-18T17:00:23.380Z,38.70
2018-09-18T17:02:50.581Z,39.10
2018-09-18T17:05:17.817Z,48.60
2018-09-18T17:07:47.900Z,40.50
2018-09-18T17:10:15.311Z,41.30
2018-09-18T17:15:35.454Z,42.80
2018-09-18T17:22:57.252Z,44.60
2018-09-18T17:25:24.589Z,45.60
2018-09-18T17:30:19.088Z,45.50
2018-09-18T17:32:46.349Z,47.50
2018-09-18T17:37:40.855Z,47.40
2018-09-18T17:40:08.111Z,80.80
2018-09-18T17:42:35.484Z,71.70
2018-09-18T17:45:04.528Z,56.80
2018-09-18T17:47:31.815Z,91.40
2018-09-18T17:49:59.036Z,63.30
2018-09-18T17:52:27.420Z,56.20
2018-09-18T18:07:11.727Z,70.30
2018-09-18T18:09:38.995Z,71.30
2018-09-18T18:14:34.373Z,65.10
2018-09-18T18:17:01.783Z,70.40
2018-09-18T18:19:29.137Z,66.70
2018-09-18T18:21:56.494Z,66.70
2018-09-18T18:24:23.847Z,81.10
2018-09-18T18:26:51.109Z,74.60
2018-09-18T18:34:12.948Z,67.90
2018-09-18T18:36:40.194Z,69.20
2018-09-18T18:39:08.095Z,69.40
2018-09-18T18:41:35.949Z,68.90
2018-09-18T18:44:03.516Z,74.00
2018-09-18T18:46:30.748Z,74.30
2018-09-18T18:48:58.027Z,82.60
2018-09-18T18:51:26.915Z,86.60
2018-09-18T18:53:54.343Z,85.60
2018-09-18T18:56:41.314Z,87.00
2018-09-18T18:59:10.216Z,88.40
2018-09-18T19:01:37.499Z,89.40
2018-09-18T19:04:04.947Z,90.70
2018-09-18T19:06:32.243Z,92.20
2018-09-18T19:09:12.099Z,94.10
2018-09-18T19:11:39.667Z,95.10
2018-09-18T19:14:07.019Z,91.80
2018-09-18T19:16:34.266Z,92.00
2018-09-18T19:19:01.499Z,91.60
2018-09-18T19:21:30.320Z,91.00
2018-09-18T19:23:57.576Z,93.30
2018-09-18T19:26:27.264Z,92.90
2018-09-18T19:28:56.237Z,94.60
2018-09-18T19:33:50.716Z,95.40
2018-09-18T19:36:17.955Z,94.20
2018-09-18T19:38:45.227Z,95.20
2018-09-18T19:41:12.531Z,94.90
2018-09-18T19:43:39.766Z,95.40
2018-09-18T19:46:07.022Z,97.40
2018-09-18T19:48:34.289Z,96.90
2018-09-18T19:51:01.600Z,98.90
2018-09-18T19:53:28.869Z,99.50
2018-09-18T19:55:56.132Z,96.60
2018-09-18T19:58:24.030Z,96.40
2018-09-18T20:00:51.335Z,98.90
2018-09-18T20:03:18.642Z,99.90
2018-09-18T20:05:45.884Z,99.90
2018-09-18T20:08:13.172Z,99.90
2018-09-18T20:10:40.437Z,99.90
2018-09-18T20:13:08.543Z,99.90
2018-09-18T20:15:35.800Z,99.90
2018-09-18T20:18:03.045Z,99.90
2018-09-18T20:20:30.351Z,99.90
2018-09-18T20:22:57.695Z,99.90
2018-09-18T20:25:24.927Z,99.90
2018-09-18T20:27:52.385Z,99.90
2018-09-18T20:30:19.667Z,99.90
2018-09-18T20:32:46.916Z,99.90
2018-09-18T20:35:14.115Z,99.90
2018-09-18T20:37:41.360Z,99.90
2018-09-18T20:40:08.567Z,99.90
2018-09-18T20:42:35.806Z,99.90
2018-09-18T20:45:03.055Z,99.90
2018-09-18T20:47:30.314Z,99.90
2018-09-18T20:49:57.590Z,99.90
2018-09-18T20:52:24.875Z,99.90
2018-09-18T20:54:52.082Z,99.90
2018-09-18T20:57:19.302Z,99.90
2018-09-18T20:59:46.578Z,99.90
2018-09-18T21:02:13.887Z,99.90
2018-09-18T21:04:41.060Z,99.90
2018-09-18T21:07:08.517Z,99.90
2018-09-18T21:09:35.771Z,99.90
2018-09-18T21:12:03.007Z,99.90
2018-09-18T21:14:30.241Z,99.90
2018-09-18T21:16:57.464Z,99.90
2018-09-18T21:19:24.741Z,99.90
2018-09-18T21:21:51.966Z,99.90
2018-09-18T21:24:19.271Z,99.90
2018-09-18T21:26:46.603Z,99.90
2018-09-18T21:29:13.871Z,99.90
2018-09-18T21:34:17.374Z,99.90
2018-09-18T21:36:44.599Z,99.90
2018-09-18T21:39:11.878Z,99.90
2018-09-18T21:41:39.276Z,99.90
2018-09-18T21:44:06.684Z,99.90
2018-09-18T21:46:33.907Z,99.90
2018-09-18T21:49:02.118Z,99.90
2018-09-18T21:51:29.472Z,99.90
2018-09-18T21:53:56.677Z,99.90
2018-09-18T21:56:23.925Z,99.90
2018-09-18T21:58:51.153Z,99.90
2018-09-18T22:50:23.874Z,99.90
2018-09-18T22:52:51.086Z,99.90
2018-09-18T22:55:18.375Z,99.90
2018-09-18T22:57:45.590Z,99.90
2018-09-18T23:00:12.807Z,99.90
2018-09-18T23:02:40.066Z,99.90
2018-09-18T23:05:07.525Z,99.90
2018-09-18T23:07:34.764Z,99.90
2018-09-18T23:10:02.238Z,99.90
2018-09-18T23:12:29.570Z,99.90
2018-09-18T23:14:56.808Z,99.90
2018-09-18T23:17:24.045Z,99.90
2018-09-18T23:19:51.293Z,99.90
2018-09-18T23:22:18.539Z,99.90
2018-09-18T23:24:45.834Z,99.90
2018-09-18T23:27:13.120Z,99.90
2018-09-18T23:29:40.335Z,99.90
2018-09-18T23:32:07.608Z,99.90
2018-09-18T23:34:34.903Z,99.90
2018-09-18T23:37:02.164Z,99.90
2018-09-18T23:39:29.397Z,99.90
2018-09-18T23:41:56.642Z,99.90
2018-09-18T23:44:23.800Z,99.90
2018-09-18T23:46:51.000Z,99.90
2018-09-18T23:49:18.246Z,99.90
2018-09-18T23:51:45.457Z,99.90
2018-09-18T23:54:12.671Z,99.90
2018-09-18T23:56:39.874Z,99.90
2018-09-18T23:59:07.127Z,99.90
